Villa Victoria, Puerto Rico
Current Conditions -  °F | °C
As of 1:56 AM on Wednesday 22 Oct 2014 (Local Time) from TJSJ Reporting Station
Scattered Clouds Scattered Clouds  
Wind Chill: 80°   Ceiling: Unl
Heat Index: 85°   Visibility: 10mi
Dew Point: 74°   Wind: 3mph
Humidity: 81%   Direction: 140°SE
Pressure: 29.95"   Gusts: NA
Location:  18.2361°N, 66.0369°W
Report Text: TJSJ 220556Z 14003KT 10SM FEW031 SCT060 27/23 A2995 RMK AO2 SLP140 T02670233 10283 20267 58010
Loading
Personal Weather Stations






























Interactive Weather Map
Tropical Storm Tracking
New forecast layout! Learn more

10-Day Weather Forecast

Advertisements
Track Severe Weather on mobile